WTB42F MYNN-MTPP
Flight info
| Callsign | WTB42F |
|---|---|
| Flight time | 1h 21m |
| Altitude | 37000 |
| Route | BOSAR DCT KNSLY DCT JOSES/N0389F230 A315 SAVAR SAVAR1D |
| Aircraft | A321/M-SDE3FGHIRWY/LB1 |
Departure
| Time | 2026-04-20 18:41 |
|---|---|
| Airport | Lynden Pindling International Airport (MYNN) |
Arrival
| Time | 2026-04-20 20:03 |
|---|---|
| Airport | Toussaint Louverture International Airport (MTPP) |
| Time | Latitude | Longitude | Altitude | Speed | Heading |
|---|---|---|---|---|---|
| 2026-04-20 18:10 | 25.04804 | -77.46734 | 27 ft | 0 kts | 312° |
| 2026-04-20 18:29 | 25.04801 | -77.46730 | 17 ft | 4 kts | 310° |
| 2026-04-20 18:29 | 25.04786 | -77.46713 | 20 ft | 3 kts | 322° |
| 2026-04-20 18:29 | 25.04764 | -77.46698 | 21 ft | 4 kts | 332° |
| 2026-04-20 18:29 | 25.04748 | -77.46687 | 19 ft | 4 kts | 270° |
| 2026-04-20 18:30 | 25.04747 | -77.46684 | 18 ft | 0 kts | 241° |
| 2026-04-20 18:31 | 25.04747 | -77.46685 | 18 ft | 1 kts | 241° |
| 2026-04-20 18:31 | 25.04725 | -77.46721 | 17 ft | 8 kts | 236° |
| 2026-04-20 18:32 | 25.04710 | -77.46771 | 18 ft | 6 kts | 279° |
| 2026-04-20 18:32 | 25.04742 | -77.46820 | 18 ft | 12 kts | 314° |
| 2026-04-20 18:32 | 25.04798 | -77.46884 | 19 ft | 11 kts | 314° |
| 2026-04-20 18:32 | 25.04850 | -77.46943 | 18 ft | 10 kts | 314° |
| 2026-04-20 18:33 | 25.04899 | -77.46998 | 18 ft | 10 kts | 314° |
| 2026-04-20 18:33 | 25.04944 | -77.47048 | 20 ft | 9 kts | 315° |
| 2026-04-20 18:33 | 25.04987 | -77.47096 | 19 ft | 10 kts | 315° |
| 2026-04-20 18:33 | 25.05031 | -77.47146 | 18 ft | 9 kts | 314° |
| 2026-04-20 18:34 | 25.05070 | -77.47190 | 18 ft | 8 kts | 314° |
| 2026-04-20 18:34 | 25.05105 | -77.47228 | 18 ft | 7 kts | 315° |
| 2026-04-20 18:34 | 25.05135 | -77.47262 | 18 ft | 6 kts | 314° |
| 2026-04-20 18:34 | 25.05161 | -77.47291 | 18 ft | 5 kts | 314° |
| 2026-04-20 18:35 | 25.05181 | -77.47314 | 19 ft | 4 kts | 314° |
| 2026-04-20 18:35 | 25.05188 | -77.47321 | 19 ft | 0 kts | 314° |
| 2026-04-20 18:35 | 25.05192 | -77.47326 | 19 ft | 2 kts | 313° |
| 2026-04-20 18:35 | 25.05196 | -77.47331 | 18 ft | 3 kts | 311° |
| 2026-04-20 18:36 | 25.05200 | -77.47337 | 18 ft | 1 kts | 308° |
| 2026-04-20 18:36 | 25.05206 | -77.47346 | 18 ft | 2 kts | 303° |
| 2026-04-20 18:36 | 25.05209 | -77.47354 | 18 ft | 0 kts | 297° |
| 2026-04-20 18:36 | 25.05211 | -77.47359 | 18 ft | 0 kts | 295° |
| 2026-04-20 18:37 | 25.05212 | -77.47362 | 18 ft | 3 kts | 294° |
| 2026-04-20 18:37 | 25.05216 | -77.47422 | 19 ft | 3 kts | 257° |
| 2026-04-20 18:38 | 25.05215 | -77.47428 | 19 ft | 2 kts | 257° |
| 2026-04-20 18:39 | 25.05206 | -77.47460 | 20 ft | 9 kts | 252° |
| 2026-04-20 18:39 | 25.05189 | -77.47509 | 21 ft | 5 kts | 245° |
| 2026-04-20 18:39 | 25.05153 | -77.47532 | 21 ft | 7 kts | 162° |
| 2026-04-20 18:39 | 25.05140 | -77.47519 | 20 ft | 0 kts | 137° |
| 2026-04-20 18:40 | 25.05068 | -77.47439 | 19 ft | 47 kts | 134° |
| 2026-04-20 18:41 | 25.04679 | -77.47001 | 23 ft | 109 kts | 134° |
| 2026-04-20 18:41 | 25.04028 | -77.46271 | 21 ft | 156 kts | 134° |
| 2026-04-20 18:41 | 25.03196 | -77.45360 | 328 ft | 165 kts | 133° |
| 2026-04-20 18:41 | 25.02417 | -77.44491 | 1093 ft | 159 kts | 134° |
| 2026-04-20 18:42 | 25.01632 | -77.43621 | 1639 ft | 161 kts | 134° |
| 2026-04-20 18:42 | 25.00807 | -77.42705 | 1990 ft | 179 kts | 134° |
| 2026-04-20 18:42 | 24.99882 | -77.41677 | 2195 ft | 198 kts | 133° |
| 2026-04-20 18:42 | 24.98925 | -77.40490 | 2333 ft | 218 kts | 128° |
| 2026-04-20 18:43 | 24.97972 | -77.39086 | 2479 ft | 241 kts | 123° |
| 2026-04-20 18:43 | 24.96980 | -77.37483 | 2841 ft | 261 kts | 122° |
| 2026-04-20 18:43 | 24.95962 | -77.35805 | 3546 ft | 266 kts | 123° |
| 2026-04-20 18:43 | 24.94920 | -77.34100 | 4302 ft | 270 kts | 123° |
| 2026-04-20 18:44 | 24.93855 | -77.32382 | 5081 ft | 273 kts | 124° |
| 2026-04-20 18:44 | 24.92769 | -77.30646 | 5819 ft | 278 kts | 124° |
| 2026-04-20 18:44 | 24.91659 | -77.28884 | 6556 ft | 281 kts | 124° |
| 2026-04-20 18:44 | 24.90533 | -77.27105 | 7235 ft | 286 kts | 124° |
| 2026-04-20 18:45 | 24.89388 | -77.25297 | 7925 ft | 290 kts | 125° |
| 2026-04-20 18:45 | 24.88228 | -77.23469 | 8629 ft | 293 kts | 125° |
| 2026-04-20 18:45 | 24.87053 | -77.21622 | 9341 ft | 297 kts | 125° |
| 2026-04-20 18:45 | 24.85858 | -77.19744 | 10019 ft | 301 kts | 125° |
| 2026-04-20 18:46 | 24.84638 | -77.17826 | 10398 ft | 315 kts | 125° |
| 2026-04-20 18:46 | 24.83331 | -77.15774 | 10528 ft | 338 kts | 125° |
| 2026-04-20 18:46 | 24.81948 | -77.13602 | 10820 ft | 353 kts | 125° |
| 2026-04-20 18:46 | 24.80527 | -77.11368 | 11341 ft | 359 kts | 126° |
| 2026-04-20 18:47 | 24.79085 | -77.09102 | 11925 ft | 364 kts | 126° |
| 2026-04-20 18:47 | 24.77622 | -77.06804 | 12510 ft | 368 kts | 126° |
| 2026-04-20 18:47 | 24.76145 | -77.04485 | 13087 ft | 373 kts | 126° |
| 2026-04-20 18:47 | 24.74646 | -77.02135 | 13659 ft | 377 kts | 126° |
| 2026-04-20 18:48 | 24.73129 | -76.99760 | 14169 ft | 382 kts | 127° |
| 2026-04-20 18:48 | 24.71598 | -76.97362 | 14695 ft | 385 kts | 127° |
| 2026-04-20 18:48 | 24.70050 | -76.94939 | 15203 ft | 389 kts | 127° |
| 2026-04-20 18:48 | 24.68489 | -76.92496 | 15721 ft | 392 kts | 127° |
| 2026-04-20 18:49 | 24.66916 | -76.90034 | 16242 ft | 395 kts | 127° |
| 2026-04-20 18:49 | 24.65336 | -76.87559 | 16757 ft | 399 kts | 127° |
| 2026-04-20 18:49 | 24.63648 | -76.85172 | 17242 ft | 400 kts | 135° |
| 2026-04-20 18:49 | 24.61601 | -76.83108 | 17755 ft | 400 kts | 144° |
| 2026-04-20 18:50 | 24.59424 | -76.81174 | 18238 ft | 404 kts | 144° |
| 2026-04-20 18:50 | 24.57235 | -76.79225 | 18677 ft | 407 kts | 144° |
| 2026-04-20 18:50 | 24.55027 | -76.77256 | 19085 ft | 411 kts | 144° |
| 2026-04-20 18:50 | 24.52801 | -76.75267 | 19489 ft | 414 kts | 144° |
| 2026-04-20 18:51 | 24.50558 | -76.73260 | 19885 ft | 417 kts | 144° |
| 2026-04-20 18:51 | 24.48293 | -76.71237 | 20278 ft | 421 kts | 144° |
| 2026-04-20 18:51 | 24.46014 | -76.69205 | 20669 ft | 424 kts | 144° |
| 2026-04-20 18:51 | 24.43713 | -76.67155 | 21041 ft | 427 kts | 144° |
| 2026-04-20 18:52 | 24.41396 | -76.65092 | 21422 ft | 431 kts | 144° |
| 2026-04-20 18:52 | 24.39064 | -76.63015 | 21801 ft | 434 kts | 144° |
| 2026-04-20 18:52 | 24.36712 | -76.60917 | 22180 ft | 437 kts | 144° |
| 2026-04-20 18:52 | 24.34346 | -76.58808 | 22554 ft | 440 kts | 144° |
| 2026-04-20 18:53 | 24.31961 | -76.56685 | 22930 ft | 443 kts | 144° |
| 2026-04-20 18:53 | 24.29557 | -76.54549 | 23297 ft | 446 kts | 144° |
| 2026-04-20 18:53 | 24.27143 | -76.52402 | 23647 ft | 449 kts | 144° |
| 2026-04-20 18:53 | 24.24705 | -76.50234 | 23948 ft | 452 kts | 144° |
| 2026-04-20 18:54 | 24.22257 | -76.48059 | 24253 ft | 455 kts | 144° |
| 2026-04-20 18:54 | 24.19791 | -76.45874 | 24570 ft | 457 kts | 144° |
| 2026-04-20 18:54 | 24.17308 | -76.43676 | 24883 ft | 460 kts | 144° |
| 2026-04-20 18:54 | 24.14817 | -76.41469 | 25199 ft | 462 kts | 144° |
| 2026-04-20 18:55 | 24.12314 | -76.39251 | 25517 ft | 464 kts | 144° |
| 2026-04-20 18:55 | 24.09795 | -76.37019 | 25835 ft | 467 kts | 144° |
| 2026-04-20 18:55 | 24.07263 | -76.34780 | 26139 ft | 469 kts | 144° |
| 2026-04-20 18:55 | 24.04719 | -76.32533 | 26449 ft | 472 kts | 144° |
| 2026-04-20 18:56 | 24.02156 | -76.30272 | 26753 ft | 474 kts | 144° |
| 2026-04-20 18:56 | 23.99583 | -76.28003 | 27056 ft | 476 kts | 144° |
| 2026-04-20 18:56 | 23.97003 | -76.25724 | 27345 ft | 479 kts | 144° |
| 2026-04-20 18:56 | 23.94404 | -76.23425 | 27643 ft | 481 kts | 144° |
| 2026-04-20 18:57 | 23.91799 | -76.21121 | 27936 ft | 483 kts | 144° |
| 2026-04-20 18:57 | 23.89177 | -76.18807 | 28228 ft | 485 kts | 144° |
| 2026-04-20 18:57 | 23.86540 | -76.16484 | 28515 ft | 488 kts | 144° |
| 2026-04-20 18:57 | 23.83890 | -76.14156 | 28794 ft | 490 kts | 144° |
| 2026-04-20 18:58 | 23.81266 | -76.11849 | 29063 ft | 492 kts | 144° |
| 2026-04-20 18:58 | 23.78600 | -76.09502 | 29324 ft | 494 kts | 144° |
| 2026-04-20 18:58 | 23.75920 | -76.07141 | 29585 ft | 496 kts | 144° |
| 2026-04-20 18:58 | 23.73227 | -76.04774 | 29839 ft | 498 kts | 144° |
| 2026-04-20 18:59 | 23.70523 | -76.02403 | 30090 ft | 500 kts | 144° |
| 2026-04-20 18:59 | 23.67804 | -76.00019 | 30306 ft | 502 kts | 144° |
| 2026-04-20 18:59 | 23.65079 | -75.97626 | 30518 ft | 504 kts | 144° |
| 2026-04-20 18:59 | 23.62338 | -75.95222 | 30728 ft | 506 kts | 144° |
| 2026-04-20 19:00 | 23.59594 | -75.92811 | 31026 ft | 506 kts | 144° |
| 2026-04-20 19:00 | 23.56851 | -75.90401 | 31332 ft | 506 kts | 144° |
| 2026-04-20 19:00 | 23.54105 | -75.87993 | 31618 ft | 506 kts | 144° |
| 2026-04-20 19:00 | 23.51363 | -75.85592 | 31900 ft | 507 kts | 145° |
| 2026-04-20 19:01 | 23.48608 | -75.83188 | 32188 ft | 507 kts | 145° |
| 2026-04-20 19:01 | 23.45855 | -75.80787 | 32480 ft | 507 kts | 145° |
| 2026-04-20 19:01 | 23.43096 | -75.78383 | 32766 ft | 508 kts | 145° |
| 2026-04-20 19:01 | 23.40338 | -75.75978 | 33054 ft | 508 kts | 145° |
| 2026-04-20 19:02 | 23.37581 | -75.73571 | 33332 ft | 508 kts | 145° |
| 2026-04-20 19:02 | 23.34826 | -75.71161 | 33619 ft | 508 kts | 145° |
| 2026-04-20 19:02 | 23.32062 | -75.68750 | 33889 ft | 509 kts | 145° |
| 2026-04-20 19:02 | 23.29293 | -75.66340 | 34153 ft | 509 kts | 145° |
| 2026-04-20 19:03 | 23.26561 | -75.63964 | 34399 ft | 509 kts | 145° |
| 2026-04-20 19:03 | 23.23798 | -75.61560 | 34670 ft | 509 kts | 145° |
| 2026-04-20 19:03 | 23.21039 | -75.59155 | 34873 ft | 509 kts | 145° |
| 2026-04-20 19:03 | 23.18282 | -75.56751 | 35087 ft | 508 kts | 145° |
| 2026-04-20 19:04 | 23.15521 | -75.54350 | 35342 ft | 507 kts | 145° |
| 2026-04-20 19:04 | 23.12763 | -75.51960 | 35601 ft | 507 kts | 146° |
| 2026-04-20 19:04 | 23.10010 | -75.49575 | 35855 ft | 506 kts | 145° |
| 2026-04-20 19:04 | 23.07263 | -75.47193 | 36137 ft | 505 kts | 145° |
| 2026-04-20 19:05 | 23.04514 | -75.44811 | 36414 ft | 503 kts | 146° |
| 2026-04-20 19:05 | 23.01775 | -75.42443 | 36659 ft | 502 kts | 146° |
| 2026-04-20 19:05 | 22.99035 | -75.40075 | 36789 ft | 504 kts | 146° |
| 2026-04-20 19:05 | 22.96291 | -75.37703 | 36911 ft | 505 kts | 145° |
| 2026-04-20 19:06 | 22.93541 | -75.35325 | 37051 ft | 505 kts | 145° |
| 2026-04-20 19:06 | 22.90793 | -75.32947 | 37072 ft | 505 kts | 145° |
| 2026-04-20 19:06 | 22.85303 | -75.28203 | 37070 ft | 504 kts | 145° |
| 2026-04-20 19:07 | 22.79824 | -75.23478 | 37069 ft | 503 kts | 145° |
| 2026-04-20 19:07 | 22.74343 | -75.18755 | 37067 ft | 503 kts | 145° |
| 2026-04-20 19:08 | 22.66165 | -75.11706 | 37061 ft | 503 kts | 145° |
| 2026-04-20 19:09 | 22.60684 | -75.07005 | 37071 ft | 503 kts | 145° |
| 2026-04-20 19:09 | 22.55207 | -75.02299 | 37079 ft | 503 kts | 145° |
| 2026-04-20 19:10 | 22.49713 | -74.97583 | 37076 ft | 503 kts | 145° |
| 2026-04-20 19:10 | 22.44222 | -74.92888 | 37074 ft | 503 kts | 145° |
| 2026-04-20 19:11 | 22.38735 | -74.88189 | 37073 ft | 503 kts | 145° |
| 2026-04-20 19:11 | 22.33254 | -74.83493 | 37073 ft | 502 kts | 145° |
| 2026-04-20 19:12 | 22.27779 | -74.78811 | 37074 ft | 502 kts | 145° |
| 2026-04-20 19:12 | 22.22299 | -74.74142 | 37071 ft | 502 kts | 145° |
| 2026-04-20 19:13 | 22.16818 | -74.69468 | 37067 ft | 501 kts | 145° |
| 2026-04-20 19:13 | 22.11341 | -74.64809 | 37066 ft | 501 kts | 145° |
| 2026-04-20 19:14 | 22.05866 | -74.60146 | 37071 ft | 501 kts | 145° |
| 2026-04-20 19:14 | 22.00402 | -74.55497 | 37070 ft | 500 kts | 145° |
| 2026-04-20 19:15 | 21.94935 | -74.50856 | 37069 ft | 500 kts | 145° |
| 2026-04-20 19:15 | 21.89477 | -74.46228 | 37064 ft | 499 kts | 145° |
| 2026-04-20 19:16 | 21.84026 | -74.41606 | 37064 ft | 499 kts | 145° |
| 2026-04-20 19:16 | 21.78582 | -74.36996 | 37066 ft | 498 kts | 145° |
| 2026-04-20 19:17 | 21.73130 | -74.32389 | 37064 ft | 498 kts | 145° |
| 2026-04-20 19:17 | 21.67726 | -74.27826 | 37062 ft | 497 kts | 145° |
| 2026-04-20 19:18 | 21.62289 | -74.23230 | 37062 ft | 497 kts | 145° |
| 2026-04-20 19:18 | 21.56838 | -74.18635 | 37032 ft | 499 kts | 145° |
| 2026-04-20 19:19 | 21.51325 | -74.13996 | 37028 ft | 501 kts | 145° |
| 2026-04-20 19:19 | 21.45874 | -74.09406 | 37033 ft | 502 kts | 145° |
| 2026-04-20 19:20 | 21.40377 | -74.04781 | 37038 ft | 502 kts | 145° |
| 2026-04-20 19:20 | 21.34877 | -74.00156 | 37038 ft | 502 kts | 145° |
| 2026-04-20 19:21 | 21.29383 | -73.95545 | 37047 ft | 502 kts | 145° |
| 2026-04-20 19:21 | 21.24765 | -73.91678 | 37050 ft | 502 kts | 145° |
| 2026-04-20 19:22 | 21.19258 | -73.87067 | 37047 ft | 502 kts | 145° |
| 2026-04-20 19:22 | 21.13789 | -73.82486 | 37052 ft | 502 kts | 145° |
| 2026-04-20 19:23 | 21.08286 | -73.77885 | 37048 ft | 502 kts | 145° |
| 2026-04-20 19:23 | 21.02781 | -73.73298 | 37041 ft | 501 kts | 145° |
| 2026-04-20 19:24 | 20.97276 | -73.68717 | 37046 ft | 501 kts | 147° |
| 2026-04-20 19:24 | 20.91305 | -73.65002 | 37045 ft | 496 kts | 156° |
| 2026-04-20 19:25 | 20.85204 | -73.61574 | 37041 ft | 496 kts | 156° |
| 2026-04-20 19:25 | 20.79100 | -73.58136 | 37036 ft | 495 kts | 156° |
| 2026-04-20 19:26 | 20.73002 | -73.54690 | 37034 ft | 495 kts | 156° |
| 2026-04-20 19:26 | 20.66908 | -73.51250 | 37036 ft | 495 kts | 156° |
| 2026-04-20 19:27 | 20.60811 | -73.47814 | 37040 ft | 496 kts | 156° |
| 2026-04-20 19:27 | 20.54709 | -73.44390 | 37038 ft | 495 kts | 156° |
| 2026-04-20 19:28 | 20.48602 | -73.40969 | 37038 ft | 496 kts | 156° |
| 2026-04-20 19:28 | 20.42504 | -73.37551 | 37039 ft | 496 kts | 156° |
| 2026-04-20 19:29 | 20.36334 | -73.34093 | 37014 ft | 505 kts | 156° |
| 2026-04-20 19:29 | 20.30081 | -73.30587 | 37020 ft | 511 kts | 156° |
| 2026-04-20 19:30 | 20.23778 | -73.27047 | 37026 ft | 512 kts | 156° |
| 2026-04-20 19:30 | 20.17467 | -73.23521 | 37009 ft | 512 kts | 156° |
| 2026-04-20 19:31 | 20.11152 | -73.19993 | 37020 ft | 512 kts | 156° |
| 2026-04-20 19:31 | 20.04837 | -73.16474 | 37028 ft | 513 kts | 156° |
| 2026-04-20 19:32 | 19.98500 | -73.12955 | 37035 ft | 514 kts | 156° |
| 2026-04-20 19:32 | 19.95336 | -73.11192 | 36898 ft | 511 kts | 156° |
| 2026-04-20 19:32 | 19.92183 | -73.09433 | 36135 ft | 512 kts | 155° |
| 2026-04-20 19:32 | 19.89032 | -73.07677 | 35329 ft | 513 kts | 155° |
| 2026-04-20 19:33 | 19.85866 | -73.05909 | 34522 ft | 514 kts | 155° |
| 2026-04-20 19:33 | 19.82696 | -73.04128 | 33667 ft | 516 kts | 154° |
| 2026-04-20 19:33 | 19.79517 | -73.02339 | 32702 ft | 518 kts | 154° |
| 2026-04-20 19:33 | 19.76330 | -73.00540 | 32007 ft | 518 kts | 154° |
| 2026-04-20 19:34 | 19.73161 | -72.98698 | 31501 ft | 520 kts | 153° |
| 2026-04-20 19:34 | 19.70007 | -72.96808 | 30890 ft | 521 kts | 152° |
| 2026-04-20 19:34 | 19.66862 | -72.94881 | 30291 ft | 523 kts | 152° |
| 2026-04-20 19:34 | 19.63707 | -72.92942 | 29630 ft | 525 kts | 152° |
| 2026-04-20 19:35 | 19.60541 | -72.91008 | 29029 ft | 525 kts | 152° |
| 2026-04-20 19:35 | 19.57373 | -72.89088 | 28420 ft | 525 kts | 152° |
| 2026-04-20 19:35 | 19.54195 | -72.87176 | 27824 ft | 525 kts | 152° |
| 2026-04-20 19:35 | 19.51015 | -72.85275 | 27223 ft | 524 kts | 152° |
| 2026-04-20 19:36 | 19.47835 | -72.83378 | 26630 ft | 524 kts | 152° |
| 2026-04-20 19:36 | 19.44671 | -72.81488 | 26069 ft | 520 kts | 152° |
| 2026-04-20 19:36 | 19.41539 | -72.79614 | 25511 ft | 515 kts | 152° |
| 2026-04-20 19:36 | 19.38473 | -72.77777 | 24964 ft | 509 kts | 152° |
| 2026-04-20 19:37 | 19.35409 | -72.75939 | 24421 ft | 504 kts | 152° |
| 2026-04-20 19:37 | 19.32379 | -72.74124 | 23919 ft | 498 kts | 151° |
| 2026-04-20 19:37 | 19.29356 | -72.72316 | 23304 ft | 497 kts | 151° |
| 2026-04-20 19:37 | 19.26397 | -72.70550 | 23108 ft | 480 kts | 151° |
| 2026-04-20 19:38 | 19.23557 | -72.68854 | 22929 ft | 452 kts | 151° |
| 2026-04-20 19:38 | 19.20892 | -72.67262 | 22236 ft | 431 kts | 151° |
| 2026-04-20 19:38 | 19.18299 | -72.65840 | 21690 ft | 408 kts | 158° |
| 2026-04-20 19:38 | 19.15733 | -72.64712 | 21016 ft | 393 kts | 159° |
| 2026-04-20 19:39 | 19.13211 | -72.63646 | 20399 ft | 389 kts | 159° |
| 2026-04-20 19:39 | 19.10712 | -72.62599 | 20025 ft | 384 kts | 159° |
| 2026-04-20 19:39 | 19.08238 | -72.61568 | 19643 ft | 381 kts | 159° |
| 2026-04-20 19:39 | 19.05745 | -72.60535 | 19253 ft | 378 kts | 159° |
| 2026-04-20 19:40 | 19.03339 | -72.59541 | 18883 ft | 375 kts | 159° |
| 2026-04-20 19:40 | 19.00911 | -72.58543 | 18486 ft | 373 kts | 159° |
| 2026-04-20 19:40 | 18.98472 | -72.57545 | 18060 ft | 370 kts | 159° |
| 2026-04-20 19:40 | 18.96078 | -72.56569 | 17631 ft | 367 kts | 159° |
| 2026-04-20 19:41 | 18.93677 | -72.55812 | 17211 ft | 364 kts | 168° |
| 2026-04-20 19:41 | 18.91205 | -72.55271 | 16777 ft | 362 kts | 169° |
| 2026-04-20 19:41 | 18.88742 | -72.54751 | 16357 ft | 359 kts | 169° |
| 2026-04-20 19:41 | 18.86295 | -72.54236 | 15940 ft | 357 kts | 169° |
| 2026-04-20 19:42 | 18.83871 | -72.53727 | 15557 ft | 354 kts | 169° |
| 2026-04-20 19:42 | 18.81467 | -72.53224 | 15182 ft | 351 kts | 169° |
| 2026-04-20 19:42 | 18.79076 | -72.52723 | 14817 ft | 349 kts | 169° |
| 2026-04-20 19:42 | 18.76755 | -72.52015 | 14453 ft | 346 kts | 153° |
| 2026-04-20 19:43 | 18.74841 | -72.50523 | 14086 ft | 343 kts | 131° |
| 2026-04-20 19:43 | 18.73612 | -72.48400 | 13688 ft | 340 kts | 108° |
| 2026-04-20 19:43 | 18.73249 | -72.45965 | 13247 ft | 336 kts | 85° |
| 2026-04-20 19:43 | 18.73739 | -72.43582 | 12816 ft | 333 kts | 71° |
| 2026-04-20 19:44 | 18.74502 | -72.41280 | 12396 ft | 331 kts | 69° |
| 2026-04-20 19:44 | 18.75286 | -72.39002 | 12001 ft | 329 kts | 69° |
| 2026-04-20 19:44 | 18.76070 | -72.36744 | 11621 ft | 327 kts | 69° |
| 2026-04-20 19:44 | 18.76916 | -72.34530 | 11255 ft | 324 kts | 59° |
| 2026-04-20 19:45 | 18.78345 | -72.32733 | 11035 ft | 320 kts | 41° |
| 2026-04-20 19:45 | 18.80042 | -72.31203 | 11023 ft | 321 kts | 39° |
| 2026-04-20 19:45 | 18.81762 | -72.29697 | 11026 ft | 322 kts | 39° |
| 2026-04-20 19:45 | 18.83492 | -72.28187 | 11028 ft | 323 kts | 39° |
| 2026-04-20 19:46 | 18.85223 | -72.26679 | 11023 ft | 323 kts | 39° |
| 2026-04-20 19:46 | 18.86955 | -72.25172 | 11022 ft | 323 kts | 39° |
| 2026-04-20 19:46 | 18.88689 | -72.23664 | 11024 ft | 323 kts | 39° |
| 2026-04-20 19:46 | 18.90398 | -72.22177 | 11018 ft | 323 kts | 39° |
| 2026-04-20 19:47 | 18.91889 | -72.20383 | 11017 ft | 324 kts | 60° |
| 2026-04-20 19:47 | 18.92584 | -72.18136 | 11018 ft | 325 kts | 84° |
| 2026-04-20 19:47 | 18.92375 | -72.15778 | 11022 ft | 325 kts | 108° |
| 2026-04-20 19:47 | 18.91290 | -72.13695 | 11020 ft | 325 kts | 131° |
| 2026-04-20 19:48 | 18.89508 | -72.12241 | 11017 ft | 326 kts | 155° |
| 2026-04-20 19:48 | 18.87348 | -72.11539 | 11025 ft | 326 kts | 168° |
| 2026-04-20 19:48 | 18.85127 | -72.11047 | 11018 ft | 327 kts | 169° |
| 2026-04-20 19:48 | 18.82897 | -72.10661 | 10805 ft | 322 kts | 180° |
| 2026-04-20 19:49 | 18.80776 | -72.11049 | 10514 ft | 302 kts | 204° |
| 2026-04-20 19:49 | 18.79077 | -72.12264 | 9976 ft | 296 kts | 230° |
| 2026-04-20 19:49 | 18.78083 | -72.14125 | 9612 ft | 292 kts | 253° |
| 2026-04-20 19:49 | 18.77596 | -72.16202 | 9201 ft | 291 kts | 258° |
| 2026-04-20 19:50 | 18.77185 | -72.18293 | 8822 ft | 290 kts | 259° |
| 2026-04-20 19:50 | 18.76787 | -72.20375 | 8458 ft | 289 kts | 259° |
| 2026-04-20 19:50 | 18.76396 | -72.22447 | 8105 ft | 287 kts | 259° |
| 2026-04-20 19:50 | 18.75925 | -72.24482 | 8013 ft | 286 kts | 248° |
| 2026-04-20 19:51 | 18.74893 | -72.26266 | 8029 ft | 287 kts | 226° |
| 2026-04-20 19:51 | 18.73294 | -72.27499 | 8034 ft | 287 kts | 203° |
| 2026-04-20 19:51 | 18.71357 | -72.27948 | 8037 ft | 287 kts | 179° |
| 2026-04-20 19:51 | 18.69451 | -72.27544 | 8040 ft | 278 kts | 155° |
| 2026-04-20 19:52 | 18.67870 | -72.26410 | 7984 ft | 275 kts | 134° |
| 2026-04-20 19:52 | 18.66827 | -72.24755 | 7633 ft | 272 kts | 110° |
| 2026-04-20 19:52 | 18.66461 | -72.22793 | 7093 ft | 277 kts | 88° |
| 2026-04-20 19:52 | 18.66859 | -72.20817 | 6671 ft | 278 kts | 65° |
| 2026-04-20 19:53 | 18.67936 | -72.19144 | 6370 ft | 276 kts | 46° |
| 2026-04-20 19:53 | 18.69120 | -72.17541 | 6321 ft | 278 kts | 65° |
| 2026-04-20 19:53 | 18.69522 | -72.15563 | 6332 ft | 278 kts | 94° |
| 2026-04-20 19:53 | 18.68982 | -72.13631 | 6328 ft | 277 kts | 123° |
| 2026-04-20 19:54 | 18.67628 | -72.12215 | 6333 ft | 277 kts | 150° |
| 2026-04-20 19:54 | 18.65940 | -72.11236 | 6333 ft | 278 kts | 148° |
| 2026-04-20 19:54 | 18.64407 | -72.10005 | 6330 ft | 278 kts | 134° |
| 2026-04-20 19:54 | 18.63291 | -72.08356 | 6328 ft | 278 kts | 114° |
| 2026-04-20 19:55 | 18.62647 | -72.06430 | 6333 ft | 279 kts | 108° |
| 2026-04-20 19:55 | 18.62081 | -72.04516 | 6320 ft | 266 kts | 107° |
| 2026-04-20 19:55 | 18.61564 | -72.02709 | 6319 ft | 249 kts | 107° |
| 2026-04-20 19:55 | 18.61075 | -72.01024 | 6248 ft | 227 kts | 111° |
| 2026-04-20 19:56 | 18.60582 | -72.00106 | 6180 ft | 212 kts | 131° |
| 2026-04-20 19:56 | 18.58914 | -71.99217 | 5930 ft | 205 kts | 175° |
| 2026-04-20 19:56 | 18.57559 | -71.99496 | 5597 ft | 192 kts | 197° |
| 2026-04-20 19:56 | 18.56405 | -72.00130 | 5281 ft | 187 kts | 222° |
| 2026-04-20 19:57 | 18.55748 | -72.01303 | 5013 ft | 193 kts | 255° |
| 2026-04-20 19:57 | 18.55813 | -72.02711 | 4777 ft | 196 kts | 286° |
| 2026-04-20 19:57 | 18.56217 | -72.04084 | 4498 ft | 196 kts | 287° |
| 2026-04-20 19:57 | 18.56616 | -72.05455 | 4237 ft | 195 kts | 287° |
| 2026-04-20 19:58 | 18.57014 | -72.06824 | 3997 ft | 197 kts | 286° |
| 2026-04-20 19:58 | 18.57414 | -72.08209 | 3737 ft | 198 kts | 286° |
| 2026-04-20 19:58 | 18.57814 | -72.09592 | 3483 ft | 197 kts | 286° |
| 2026-04-20 19:58 | 18.58212 | -72.10968 | 3238 ft | 196 kts | 285° |
| 2026-04-20 19:59 | 18.58609 | -72.12338 | 2976 ft | 194 kts | 285° |
| 2026-04-20 19:59 | 18.58860 | -72.13719 | 2729 ft | 187 kts | 272° |
| 2026-04-20 19:59 | 18.58792 | -72.15037 | 2580 ft | 180 kts | 264° |
| 2026-04-20 19:59 | 18.58705 | -72.16331 | 2227 ft | 174 kts | 266° |
| 2026-04-20 20:00 | 18.58632 | -72.17549 | 1949 ft | 158 kts | 269° |
| 2026-04-20 20:00 | 18.58545 | -72.18666 | 1770 ft | 150 kts | 266° |
| 2026-04-20 20:00 | 18.58474 | -72.19752 | 1628 ft | 147 kts | 269° |
| 2026-04-20 20:00 | 18.58429 | -72.20819 | 1465 ft | 146 kts | 268° |
| 2026-04-20 20:01 | 18.58374 | -72.21875 | 1330 ft | 145 kts | 268° |
| 2026-04-20 20:01 | 18.58336 | -72.22936 | 1058 ft | 144 kts | 268° |
| 2026-04-20 20:01 | 18.58297 | -72.23988 | 858 ft | 142 kts | 269° |
| 2026-04-20 20:01 | 18.58237 | -72.25033 | 670 ft | 144 kts | 266° |
| 2026-04-20 20:02 | 18.58158 | -72.26089 | 490 ft | 146 kts | 268° |
| 2026-04-20 20:02 | 18.58100 | -72.27161 | 285 ft | 146 kts | 268° |
| 2026-04-20 20:02 | 18.58059 | -72.28216 | 139 ft | 139 kts | 270° |
| 2026-04-20 20:02 | 18.58016 | -72.29135 | 108 ft | 106 kts | 266° |
| 2026-04-20 20:03 | 18.57992 | -72.29681 | 101 ft | 36 kts | 268° |
| 2026-04-20 20:03 | 18.57957 | -72.29847 | 103 ft | 13 kts | 266° |
| 2026-04-20 20:03 | 18.57981 | -72.29861 | 103 ft | 4 kts | 58° |
| 2026-04-20 20:03 | 18.57981 | -72.29712 | 101 ft | 32 kts | 87° |
| 2026-04-20 20:04 | 18.57986 | -72.29513 | 103 ft | 16 kts | 103° |
| 2026-04-20 20:04 | 18.57901 | -72.29469 | 104 ft | 14 kts | 175° |
| 2026-04-20 20:04 | 18.57831 | -72.29464 | 102 ft | 16 kts | 177° |
| 2026-04-20 20:04 | 18.57748 | -72.29460 | 101 ft | 10 kts | 177° |
| 2026-04-20 20:05 | 18.57687 | -72.29440 | 101 ft | 8 kts | 145° |
| 2026-04-20 20:05 | 18.57644 | -72.29432 | 102 ft | 5 kts | 178° |
| 2026-04-20 20:05 | 18.57621 | -72.29431 | 103 ft | 2 kts | 178° |
| 2026-04-20 20:05 | 18.57612 | -72.29430 | 103 ft | 2 kts | 177° |
| 2026-04-20 20:06 | 18.57611 | -72.29430 | 103 ft | 0 kts | 177° |